Time;durP1;ratioP1;P1;durP2;ratioP2;P2;SDS_P1;SDS_P2;PMS_P1;PMS_P2;Temp;Humidity;BMP_temperature;BMP_pressure;BME280_temperature;BME280_humidity;BME280_pressure;Samples;Min_cycle;Max_cycle;Signal;HPM_P1;HPM_P2
2023/01/16 00:00:39;;;;;;;;;0.75;0.75;;;;;;;;5076211;28;45490;-66
2023/01/16 00:03:04;;;;;;;;;0.00;0.00;;;;;;;;5068708;27;45520;-67
2023/01/16 00:05:30;;;;;;;;;3.00;0.00;;;;;;;;5075273;28;45577;-68
2023/01/16 00:07:55;;;;;;;;;2.50;0.00;;;;;;;;5076632;28;46200;-68
2023/01/16 00:10:20;;;;;;;;;2.00;0.00;;;;;;;;5077775;27;45593;-68
2023/01/16 00:12:48;;;;;;;;;2.00;1.00;;;;;;;;5075933;28;45431;-68
2023/01/16 00:15:13;;;;;;;;;1.00;0.25;;;;;;;;5076629;27;45627;-69
2023/01/16 00:17:39;;;;;;;;;0.00;0.00;;;;;;;;5076808;28;46744;-69
2023/01/16 00:20:04;;;;;;;;;0.50;0.00;;;;;;;;5077117;28;45400;-68
2023/01/16 00:22:29;;;;;;;;;0.00;0.00;;;;;;;;5077364;27;45487;-68
2023/01/16 00:24:54;;;;;;;;;0.00;0.00;;;;;;;;5077312;28;45503;-68
2023/01/16 00:27:20;;;;;;;;;1.50;1.00;;;;;;;;5077651;27;46499;-68
2023/01/16 00:29:45;;;;;;;;;3.00;1.00;;;;;;;;5076552;28;45449;-69
2023/01/16 00:32:10;;;;;;;;;0.00;0.00;;;;;;;;5076155;27;45337;-69
2023/01/16 00:34:36;;;;;;;;;0.75;0.75;;;;;;;;5077313;28;45467;-69
2023/01/16 00:37:01;;;;;;;;;0.25;0.25;;;;;;;;5076864;28;45472;-69
2023/01/16 00:39:26;;;;;;;;;0.00;0.00;;;;;;;;5076985;28;45416;-68
2023/01/16 00:41:52;;;;;;;;;2.50;0.00;;;;;;;;5076871;27;45594;-68
2023/01/16 00:44:19;;;;;;;;;0.00;0.00;;;;;;;;5077840;27;45535;-68
2023/01/16 00:46:44;;;;;;;;;1.50;1.00;;;;;;;;5076100;27;47371;-68
2023/01/16 00:49:09;;;;;;;;;1.25;0.75;;;;;;;;5056544;28;45497;-68
2023/01/16 00:51:34;;;;;;;;;4.75;3.00;;;;;;;;5056506;28;45865;-68
2023/01/16 00:54:00;;;;;;;;;1.50;1.00;;;;;;;;5055882;28;45467;-68
2023/01/16 00:56:25;;;;;;;;;1.25;1.25;;;;;;;;5056485;28;45638;-68
2023/01/16 00:58:50;;;;;;;;;1.25;0.00;;;;;;;;5056311;28;45495;-68
2023/01/16 01:01:15;;;;;;;;;0.00;0.00;;;;;;;;5069225;27;45406;-68
2023/01/16 01:03:41;;;;;;;;;3.50;1.50;;;;;;;;5075243;27;45492;-68
2023/01/16 01:06:07;;;;;;;;;2.75;0.00;;;;;;;;5076377;28;46112;-68
2023/01/16 01:08:32;;;;;;;;;2.00;0.00;;;;;;;;5076699;28;45565;-68
2023/01/16 01:10:57;;;;;;;;;3.50;1.75;;;;;;;;5075943;28;45474;-67
2023/01/16 01:13:22;;;;;;;;;1.50;1.25;;;;;;;;5075521;27;45537;-68
2023/01/16 01:15:47;;;;;;;;;1.50;1.00;;;;;;;;5076992;28;46163;-68
2023/01/16 01:18:13;;;;;;;;;2.25;1.00;;;;;;;;5074236;27;45574;-68
2023/01/16 01:20:38;;;;;;;;;2.00;0.00;;;;;;;;5077031;28;45450;-68
2023/01/16 01:23:03;;;;;;;;;0.00;0.00;;;;;;;;5077271;28;45372;-68
2023/01/16 01:25:28;;;;;;;;;1.00;1.00;;;;;;;;5076236;28;46649;-68
2023/01/16 01:27:53;;;;;;;;;0.50;0.50;;;;;;;;5076954;28;45458;-67
2023/01/16 01:30:19;;;;;;;;;3.00;1.00;;;;;;;;5076631;28;45676;-67
2023/01/16 01:32:44;;;;;;;;;2.75;1.75;;;;;;;;5077243;28;45313;-67
2023/01/16 01:35:09;;;;;;;;;2.25;1.00;;;;;;;;5076171;27;46257;-68
2023/01/16 01:37:35;;;;;;;;;1.50;1.00;;;;;;;;5076824;28;45248;-68
2023/01/16 01:40:00;;;;;;;;;6.00;1.00;;;;;;;;5076963;28;45451;-67
2023/01/16 01:42:44;;;;;;;;;1.75;1.75;;;;;;;;5077000;28;45866;-68
2023/01/16 01:45:17;;;;;;;;;3.00;1.00;;;;;;;;5076523;28;46646;-68
2023/01/16 01:47:45;;;;;;;;;3.00;1.25;;;;;;;;5076785;27;45320;-68
2023/01/16 01:50:16;;;;;;;;;3.00;1.00;;;;;;;;5076371;28;45365;-67
2023/01/16 01:52:41;;;;;;;;;1.00;1.00;;;;;;;;5066746;27;45407;-68
2023/01/16 01:55:08;;;;;;;;;3.50;2.00;;;;;;;;5056235;28;45507;-68
2023/01/16 01:57:36;;;;;;;;;1.75;1.00;;;;;;;;5056204;28;45394;-68
2023/01/16 02:00:07;;;;;;;;;5.00;2.00;;;;;;;;5056347;28;45345;-68
2023/01/16 02:02:35;;;;;;;;;0.50;0.50;;;;;;;;5056476;28;45309;-68
2023/01/16 02:05:02;;;;;;;;;2.00;2.00;;;;;;;;5070298;28;45607;-68
2023/01/16 02:07:27;;;;;;;;;1.00;1.00;;;;;;;;5077706;27;45221;-67
2023/01/16 02:09:56;;;;;;;;;3.25;2.00;;;;;;;;5069195;28;45296;-68
2023/01/16 02:12:21;;;;;;;;;4.00;1.00;;;;;;;;5071493;28;45421;-68
2023/01/16 02:14:47;;;;;;;;;2.25;1.75;;;;;;;;5076669;28;46473;-68
2023/01/16 02:20:03;;;;;;;;;1.00;1.00;;;;;;;;5079404;27;45391;-68
2023/01/16 02:22:47;;;;;;;;;1.75;1.00;;;;;;;;5078782;27;45214;-68
2023/01/16 02:25:31;;;;;;;;;3.25;1.00;;;;;;;;5082457;27;45433;-68
2023/01/16 02:28:11;;;;;;;;;2.50;1.00;;;;;;;;5100015;27;45413;-68
2023/01/16 02:30:55;;;;;;;;;5.50;1.25;;;;;;;;5099879;27;45429;-67
2023/01/16 02:33:23;;;;;;;;;1.00;1.00;;;;;;;;5059707;28;45369;-68
2023/01/16 02:35:57;;;;;;;;;1.00;1.00;;;;;;;;5058885;28;46568;-68
2023/01/16 02:38:42;;;;;;;;;2.25;1.75;;;;;;;;5073971;28;45323;-68
2023/01/16 02:41:10;;;;;;;;;4.50;1.00;;;;;;;;5079434;28;45458;-68
2023/01/16 02:43:35;;;;;;;;;2.50;0.25;;;;;;;;5080275;27;45387;-68
2023/01/16 02:46:08;;;;;;;;;0.00;0.00;;;;;;;;5079174;27;45337;-68
2023/01/16 02:48:39;;;;;;;;;1.50;0.00;;;;;;;;5079308;28;45372;-68
2023/01/16 02:51:12;;;;;;;;;1.50;1.00;;;;;;;;5079216;28;45486;-68
2023/01/16 02:53:40;;;;;;;;;2.00;0.00;;;;;;;;5078210;27;45211;-68
2023/01/16 02:56:08;;;;;;;;;2.00;1.00;;;;;;;;5079135;27;46701;-68
2023/01/16 02:58:36;;;;;;;;;1.50;1.50;;;;;;;;5079250;28;45359;-68
2023/01/16 03:01:01;;;;;;;;;0.25;0.00;;;;;;;;5079717;27;45685;-68
2023/01/16 03:03:45;;;;;;;;;3.00;1.00;;;;;;;;5078476;28;45460;-68
2023/01/16 03:06:16;;;;;;;;;2.25;1.00;;;;;;;;5071055;28;45551;-68
2023/01/16 03:08:41;;;;;;;;;3.00;0.00;;;;;;;;5041374;28;45625;-68
2023/01/16 03:11:09;;;;;;;;;2.00;0.00;;;;;;;;5071382;28;45404;-68
2023/01/16 03:13:34;;;;;;;;;1.75;1.00;;;;;;;;5079317;28;45356;-68
2023/01/16 03:16:05;;;;;;;;;0.00;0.00;;;;;;;;5079100;27;46544;-68
2023/01/16 03:18:33;;;;;;;;;2.25;0.25;;;;;;;;5077905;28;45681;-68
2023/01/16 03:20:59;;;;;;;;;2.00;0.00;;;;;;;;5078723;28;45438;-68
2023/01/16 03:23:34;;;;;;;;;0.75;0.00;;;;;;;;5078958;28;45344;-67
2023/01/16 03:26:02;;;;;;;;;0.00;0.00;;;;;;;;5069691;27;46658;-67
2023/01/16 03:28:30;;;;;;;;;0.25;0.00;;;;;;;;5077825;28;45413;-68
2023/01/16 03:31:05;;;;;;;;;0.00;0.00;;;;;;;;5076284;27;45651;-68
2023/01/16 03:33:43;;;;;;;;;1.75;0.00;;;;;;;;5063894;28;45466;-68
2023/01/16 03:36:10;;;;;;;;;3.00;1.00;;;;;;;;5066956;28;47122;-68
2023/01/16 03:38:37;;;;;;;;;1.75;0.00;;;;;;;;5072425;28;45320;-68
2023/01/16 03:41:05;;;;;;;;;0.00;0.00;;;;;;;;5059376;28;45210;-68
2023/01/16 03:43:32;;;;;;;;;2.00;0.00;;;;;;;;5074846;27;45253;-68
2023/01/16 03:46:09;;;;;;;;;0.25;0.25;;;;;;;;5064324;28;45591;-68
2023/01/16 03:48:37;;;;;;;;;0.25;0.25;;;;;;;;5077715;28;45440;-68
2023/01/16 03:51:05;;;;;;;;;0.50;0.50;;;;;;;;5071996;28;45394;-69
2023/01/16 03:53:33;;;;;;;;;0.25;0.00;;;;;;;;5078511;28;45525;-68
2023/01/16 03:55:58;;;;;;;;;0.00;0.00;;;;;;;;5043207;28;45864;-68
2023/01/16 03:58:42;;;;;;;;;1.75;0.00;;;;;;;;5077328;28;45622;-67
2023/01/16 04:01:20;;;;;;;;;0.00;0.00;;;;;;;;5067032;27;45483;-68
2023/01/16 04:03:48;;;;;;;;;0.00;0.00;;;;;;;;5071912;28;45361;-68
2023/01/16 04:06:20;;;;;;;;;3.00;0.00;;;;;;;;5066764;28;46812;-67
2023/01/16 04:08:46;;;;;;;;;1.00;0.00;;;;;;;;5077029;28;45447;-68
2023/01/16 04:11:12;;;;;;;;;2.00;0.25;;;;;;;;5076448;28;45254;-68
2023/01/16 04:13:39;;;;;;;;;0.50;0.00;;;;;;;;5077430;28;45479;-68
2023/01/16 04:16:07;;;;;;;;;3.00;0.00;;;;;;;;5076397;28;46234;-69
2023/01/16 04:18:34;;;;;;;;;1.75;0.00;;;;;;;;5060969;27;45559;-68
2023/01/16 04:20:59;;;;;;;;;0.50;0.00;;;;;;;;5077250;28;45413;-69
2023/01/16 04:23:24;;;;;;;;;1.00;0.00;;;;;;;;5077220;28;45505;-69
2023/01/16 04:25:50;;;;;;;;;0.00;0.00;;;;;;;;5076662;28;47074;-68
2023/01/16 04:28:15;;;;;;;;;0.00;0.00;;;;;;;;5075514;28;45598;-69
2023/01/16 04:30:40;;;;;;;;;0.00;0.00;;;;;;;;5072462;28;45503;-68
2023/01/16 04:33:06;;;;;;;;;0.00;0.00;;;;;;;;5058129;28;45403;-68
2023/01/16 04:35:31;;;;;;;;;0.00;0.00;;;;;;;;5068636;27;45403;-69
2023/01/16 04:37:57;;;;;;;;;1.00;0.00;;;;;;;;5076684;28;45379;-68
2023/01/16 04:40:22;;;;;;;;;0.25;0.00;;;;;;;;5076992;28;45265;-68
2023/01/16 04:42:47;;;;;;;;;2.00;0.00;;;;;;;;5076971;28;45388;-68
2023/01/16 04:45:13;;;;;;;;;0.00;0.00;;;;;;;;5076743;28;45300;-68
2023/01/16 04:47:38;;;;;;;;;0.00;0.00;;;;;;;;5076697;28;45355;-68
2023/01/16 04:50:03;;;;;;;;;1.00;0.50;;;;;;;;5076599;28;46928;-69
2023/01/16 04:52:28;;;;;;;;;1.00;0.00;;;;;;;;5072529;27;45483;-69
2023/01/16 04:54:54;;;;;;;;;0.50;0.00;;;;;;;;5059864;28;46396;-69
2023/01/16 04:57:19;;;;;;;;;0.25;0.25;;;;;;;;5077203;27;45223;-69
2023/01/16 04:59:44;;;;;;;;;0.00;0.00;;;;;;;;5076237;28;45274;-68
2023/01/16 05:02:09;;;;;;;;;0.00;0.00;;;;;;;;5077428;27;45340;-69
2023/01/16 05:04:34;;;;;;;;;0.00;0.00;;;;;;;;5077345;28;46062;-69
2023/01/16 05:07:00;;;;;;;;;1.00;0.00;;;;;;;;5065339;28;45326;-69
2023/01/16 05:09:25;;;;;;;;;0.00;0.00;;;;;;;;5056883;28;45383;-70
2023/01/16 05:11:50;;;;;;;;;0.00;0.00;;;;;;;;5057146;28;45383;-71
2023/01/16 05:14:15;;;;;;;;;1.25;0.00;;;;;;;;5056740;28;46159;-70
2023/01/16 05:16:43;;;;;;;;;0.00;0.00;;;;;;;;5072824;27;45435;-70
2023/01/16 05:19:09;;;;;;;;;0.00;0.00;;;;;;;;5077120;28;45430;-71
2023/01/16 05:21:35;;;;;;;;;0.00;0.00;;;;;;;;5077526;28;45509;-69
2023/01/16 05:24:00;;;;;;;;;2.00;0.00;;;;;;;;5059492;27;46354;-69
2023/01/16 05:26:25;;;;;;;;;0.00;0.00;;;;;;;;5056690;28;45410;-69
2023/01/16 05:28:50;;;;;;;;;0.00;0.00;;;;;;;;5063552;27;45484;-70
2023/01/16 05:31:16;;;;;;;;;0.75;0.00;;;;;;;;5075790;28;45501;-69
2023/01/16 05:33:41;;;;;;;;;0.00;0.00;;;;;;;;5062674;28;46568;-70
2023/01/16 05:36:06;;;;;;;;;0.00;0.00;;;;;;;;5073261;28;45344;-69
2023/01/16 05:38:31;;;;;;;;;0.00;0.00;;;;;;;;5076919;28;45395;-70
2023/01/16 05:40:57;;;;;;;;;0.75;0.00;;;;;;;;5077735;27;45299;-70
2023/01/16 05:43:22;;;;;;;;;1.00;0.00;;;;;;;;5070200;28;45424;-70
2023/01/16 05:45:47;;;;;;;;;0.00;0.00;;;;;;;;5072626;28;45494;-70
2023/01/16 05:48:12;;;;;;;;;0.00;0.00;;;;;;;;5079594;28;45430;-70
2023/01/16 05:50:37;;;;;;;;;0.25;0.00;;;;;;;;5078435;28;45386;-70
2023/01/16 05:53:03;;;;;;;;;0.00;0.00;;;;;;;;5071082;28;47064;-70
2023/01/16 05:55:28;;;;;;;;;2.00;0.00;;;;;;;;5073265;28;45526;-70
2023/01/16 05:57:53;;;;;;;;;1.00;0.00;;;;;;;;5079385;27;45370;-70
2023/01/16 06:00:19;;;;;;;;;0.00;0.00;;;;;;;;5067065;28;45503;-70
2023/01/16 06:02:46;;;;;;;;;1.00;0.00;;;;;;;;5078896;28;46617;-70
2023/01/16 06:05:11;;;;;;;;;0.00;0.00;;;;;;;;5079472;28;45293;-70
2023/01/16 06:07:36;;;;;;;;;0.00;0.00;;;;;;;;5063621;27;45501;-70
2023/01/16 06:10:01;;;;;;;;;0.00;0.00;;;;;;;;5068265;28;45509;-70
2023/01/16 06:12:27;;;;;;;;;0.00;0.00;;;;;;;;5078063;28;46626;-70
2023/01/16 06:14:52;;;;;;;;;0.00;0.00;;;;;;;;5078855;27;45489;-70
2023/01/16 06:17:18;;;;;;;;;0.00;0.00;;;;;;;;5070816;28;45584;-69
2023/01/16 06:19:44;;;;;;;;;1.00;0.00;;;;;;;;5075488;27;45639;-70
2023/01/16 06:22:10;;;;;;;;;0.50;0.00;;;;;;;;5070870;28;47306;-69
2023/01/16 06:24:35;;;;;;;;;0.00;0.00;;;;;;;;5059392;28;45403;-69
2023/01/16 06:27:01;;;;;;;;;0.00;0.00;;;;;;;;5075520;28;45341;-69
2023/01/16 06:29:26;;;;;;;;;0.00;0.00;;;;;;;;5059385;28;45595;-70
2023/01/16 06:31:51;;;;;;;;;0.00;0.00;;;;;;;;5078374;28;46688;-70
2023/01/16 06:34:17;;;;;;;;;0.00;0.00;;;;;;;;5081013;27;45289;-70
2023/01/16 06:36:42;;;;;;;;;0.00;0.00;;;;;;;;5079231;28;46475;-70
2023/01/16 06:39:09;;;;;;;;;0.00;0.00;;;;;;;;5078909;27;45410;-71
2023/01/16 06:41:35;;;;;;;;;0.00;0.00;;;;;;;;5079868;27;46303;-70
2023/01/16 06:44:00;;;;;;;;;1.00;1.00;;;;;;;;5079248;28;45160;-70
2023/01/16 06:46:25;;;;;;;;;2.00;0.00;;;;;;;;5079448;28;45331;-70
2023/01/16 06:48:50;;;;;;;;;0.00;0.00;;;;;;;;5078539;28;45503;-68
2023/01/16 06:51:15;;;;;;;;;0.00;0.00;;;;;;;;5071434;28;45640;-69
2023/01/16 06:53:40;;;;;;;;;0.75;0.00;;;;;;;;5067169;28;45421;-69
2023/01/16 06:56:06;;;;;;;;;0.00;0.00;;;;;;;;5058781;28;45217;-69
2023/01/16 06:58:31;;;;;;;;;0.00;0.00;;;;;;;;5086772;27;45511;-70
2023/01/16 07:00:56;;;;;;;;;2.25;2.25;;;;;;;;5088725;27;47319;-69
2023/01/16 07:03:22;;;;;;;;;0.75;0.75;;;;;;;;5078812;28;45405;-70
2023/01/16 07:05:47;;;;;;;;;0.00;0.00;;;;;;;;5078786;27;45433;-70
2023/01/16 07:08:12;;;;;;;;;0.00;0.00;;;;;;;;5079148;28;45523;-71
2023/01/16 07:10:38;;;;;;;;;0.00;0.00;;;;;;;;5078841;28;46699;-71
2023/01/16 07:13:03;;;;;;;;;0.00;0.00;;;;;;;;5078951;28;45299;-71
2023/01/16 07:23:44;;;;;;;;;0.00;0.00;;;;;;;;5062676;28;45498;-71
2023/01/16 07:26:10;;;;;;;;;1.25;1.25;;;;;;;;5077881;28;45355;-71
2023/01/16 07:28:36;;;;;;;;;3.50;0.50;;;;;;;;5078954;28;45392;-71
2023/01/16 07:31:03;;;;;;;;;4.00;4.00;;;;;;;;5066973;27;46684;-71
2023/01/16 07:33:28;;;;;;;;;0.00;0.00;;;;;;;;5058407;28;45198;-71
2023/01/16 07:35:53;;;;;;;;;1.75;0.50;;;;;;;;5059510;28;45722;-71
2023/01/16 07:38:19;;;;;;;;;1.00;1.00;;;;;;;;5078397;28;45514;-70
2023/01/16 07:40:44;;;;;;;;;1.00;1.00;;;;;;;;5077196;28;45958;-71
2023/01/16 07:43:09;;;;;;;;;1.50;1.25;;;;;;;;5077851;28;45387;-70
2023/01/16 07:45:34;;;;;;;;;0.00;0.00;;;;;;;;5077449;28;45532;-70
2023/01/16 07:48:00;;;;;;;;;2.00;2.00;;;;;;;;5067067;27;45753;-70
2023/01/16 07:50:26;;;;;;;;;6.75;4.00;;;;;;;;5057469;28;46916;-71
2023/01/16 07:52:51;;;;;;;;;2.00;2.00;;;;;;;;5057170;28;45305;-70
2023/01/16 07:55:16;;;;;;;;;8.00;7.00;;;;;;;;5064146;27;45377;-71
2023/01/16 07:57:41;;;;;;;;;0.00;0.00;;;;;;;;5071786;27;45386;-71
2023/01/16 08:00:08;;;;;;;;;0.00;0.00;;;;;;;;5077686;27;47586;-71
2023/01/16 08:02:33;;;;;;;;;0.00;0.00;;;;;;;;5078024;27;45433;-70
2023/01/16 08:04:58;;;;;;;;;3.00;3.00;;;;;;;;5075022;27;45299;-71
2023/01/16 08:07:23;;;;;;;;;0.00;0.00;;;;;;;;5076012;27;45324;-70
2023/01/16 08:09:49;;;;;;;;;0.50;0.50;;;;;;;;5060555;28;45617;-70
2023/01/16 08:12:14;;;;;;;;;0.00;0.00;;;;;;;;5076327;28;45411;-71
2023/01/16 08:14:39;;;;;;;;;0.00;0.00;;;;;;;;5071470;28;45446;-70
2023/01/16 08:17:05;;;;;;;;;1.00;1.00;;;;;;;;5057953;28;45332;-71
2023/01/16 08:19:30;;;;;;;;;0.00;0.00;;;;;;;;5057571;28;45869;-70
2023/01/16 08:21:55;;;;;;;;;3.00;3.00;;;;;;;;5057465;28;45413;-70
2023/01/16 08:24:20;;;;;;;;;1.25;1.25;;;;;;;;5057754;28;45435;-70
2023/01/16 08:26:45;;;;;;;;;2.75;0.50;;;;;;;;5057695;28;45348;-71
2023/01/16 08:29:11;;;;;;;;;1.00;1.00;;;;;;;;5057930;28;45441;-70
2023/01/16 08:31:36;;;;;;;;;0.00;0.00;;;;;;;;5057544;27;45445;-70
2023/01/16 08:34:01;;;;;;;;;1.25;0.75;;;;;;;;5058537;28;45364;-70
2023/01/16 08:36:27;;;;;;;;;3.00;3.00;;;;;;;;5064067;28;45463;-71
2023/01/16 08:38:52;;;;;;;;;0.00;0.00;;;;;;;;5077361;28;46433;-70
2023/01/16 08:52:16;;;;;;;;;0.00;0.00;;;;;;;;5077556;28;45480;-70
2023/01/16 08:54:43;;;;;;;;;4.00;4.00;;;;;;;;5077516;28;45394;-70
2023/01/16 08:57:09;;;;;;;;;1.00;1.00;;;;;;;;5077622;28;45495;-70
2023/01/16 08:59:34;;;;;;;;;0.00;0.00;;;;;;;;5060308;28;46241;-70
2023/01/16 09:02:00;;;;;;;;;0.75;0.75;;;;;;;;5060752;27;45407;-70
2023/01/16 09:04:26;;;;;;;;;1.50;1.00;;;;;;;;5077334;27;45237;-70
2023/01/16 09:06:53;;;;;;;;;0.50;0.00;;;;;;;;5076075;28;46657;-71
2023/01/16 09:09:18;;;;;;;;;0.25;0.25;;;;;;;;5056910;28;47527;-70
2023/01/16 09:14:27;;;;;;;;;0.00;0.00;;;;;;;;5069558;28;45406;-71
2023/01/16 09:16:53;;;;;;;;;4.25;2.00;;;;;;;;5080865;28;45537;-71
2023/01/16 09:19:18;;;;;;;;;0.00;0.00;;;;;;;;5083820;27;45493;-71
2023/01/16 09:21:43;;;;;;;;;9.25;9.25;;;;;;;;5101048;27;45323;-72
2023/01/16 09:24:08;;;;;;;;;2.50;1.00;;;;;;;;5101344;27;45252;-72
2023/01/16 09:26:33;;;;;;;;;2.25;2.25;;;;;;;;5101188;27;45280;-71
2023/01/16 09:28:59;;;;;;;;;0.00;0.00;;;;;;;;5101223;27;46746;-71
2023/01/16 09:31:24;;;;;;;;;0.00;0.00;;;;;;;;5091018;27;45409;-72
2023/01/16 09:33:51;;;;;;;;;0.25;0.25;;;;;;;;5101005;27;45398;-71
2023/01/16 09:36:16;;;;;;;;;2.00;0.50;;;;;;;;5068972;27;45443;-72
2023/01/16 09:38:41;;;;;;;;;2.50;2.50;;;;;;;;5060073;28;45275;-71
2023/01/16 09:41:09;;;;;;;;;2.00;2.00;;;;;;;;5060058;28;45506;-71
2023/01/16 09:43:40;;;;;;;;;0.00;0.00;;;;;;;;5060041;28;45444;-71
2023/01/16 09:46:09;;;;;;;;;8.00;8.00;;;;;;;;5060296;28;45543;-72
2023/01/16 09:48:55;;;;;;;;;1.25;1.00;;;;;;;;5075244;27;45266;-71
2023/01/16 09:51:26;;;;;;;;;0.00;0.00;;;;;;;;5036240;28;45623;-71
2023/01/16 09:59:29;;;;;;;;;0.00;0.00;;;;;;;;5056843;28;46104;-70
2023/01/16 10:01:59;;;;;;;;;2.00;2.00;;;;;;;;5048092;28;45673;-72
2023/01/16 10:04:25;;;;;;;;;1.00;1.00;;;;;;;;5044522;28;45494;-72
2023/01/16 10:06:52;;;;;;;;;1.00;1.00;;;;;;;;5029725;28;45397;-71
2023/01/16 10:09:26;;;;;;;;;0.75;0.75;;;;;;;;5036545;28;46243;-72
2023/01/16 10:11:58;;;;;;;;;1.25;0.50;;;;;;;;5036775;28;45360;-72
2023/01/16 10:14:23;;;;;;;;;0.00;0.00;;;;;;;;5035759;28;45540;-72
2023/01/16 10:17:06;;;;;;;;;1.25;1.25;;;;;;;;5025397;28;45599;-72
2023/01/16 10:19:39;;;;;;;;;1.75;1.00;;;;;;;;5036515;28;46563;-72
2023/01/16 10:22:04;;;;;;;;;0.00;0.00;;;;;;;;5026948;28;45519;-72
2023/01/16 10:24:42;;;;;;;;;4.00;4.00;;;;;;;;5030411;28;45905;-74
2023/01/16 10:27:27;;;;;;;;;5.00;5.00;;;;;;;;5037529;28;45604;-73
2023/01/16 10:29:58;;;;;;;;;9.50;7.25;;;;;;;;5078632;27;45383;-72
2023/01/16 10:32:35;;;;;;;;;1.75;1.75;;;;;;;;5078729;27;45398;-72
2023/01/16 10:35:04;;;;;;;;;4.50;3.00;;;;;;;;5079025;28;45387;-72
2023/01/16 10:37:32;;;;;;;;;2.75;2.75;;;;;;;;5075069;27;45389;-70
2023/01/16 10:40:10;;;;;;;;;2.50;1.00;;;;;;;;5057023;27;46736;-70
2023/01/16 10:50:55;;;;;;;;;2.00;0.75;;;;;;;;5077848;28;45806;-71
2023/01/16 10:53:20;;;;;;;;;0.75;0.75;;;;;;;;5076689;28;45416;-71
2023/01/16 10:55:47;;;;;;;;;1.00;1.00;;;;;;;;5078136;27;45387;-71
2023/01/16 10:58:12;;;;;;;;;1.00;1.00;;;;;;;;5077540;28;45427;-72
2023/01/16 11:00:39;;;;;;;;;2.50;2.00;;;;;;;;5078550;28;46443;-71
2023/01/16 11:03:19;;;;;;;;;6.00;6.00;;;;;;;;5078725;27;45464;-72
2023/01/16 11:05:44;;;;;;;;;1.50;1.50;;;;;;;;5077479;28;45335;-71
2023/01/16 11:08:09;;;;;;;;;1.50;1.50;;;;;;;;5061763;28;45523;-71
2023/01/16 11:10:35;;;;;;;;;1.25;1.25;;;;;;;;5067544;27;45462;-71
2023/01/16 11:18:47;;;;;;;;;1.25;0.75;;;;;;;;5066362;28;45455;-70
2023/01/16 11:21:14;;;;;;;;;3.00;1.50;;;;;;;;5073189;28;47470;-71
2023/01/16 11:23:41;;;;;;;;;2.00;2.00;;;;;;;;5058031;28;45377;-70
2023/01/16 11:26:07;;;;;;;;;2.00;2.00;;;;;;;;5057984;28;45368;-71
2023/01/16 11:28:34;;;;;;;;;1.25;1.25;;;;;;;;5058490;28;45755;-70
2023/01/16 11:31:19;;;;;;;;;2.75;2.75;;;;;;;;5057527;28;46194;-71
2023/01/16 11:33:47;;;;;;;;;5.00;4.25;;;;;;;;5060398;28;45462;-70
2023/01/16 11:36:15;;;;;;;;;3.75;3.00;;;;;;;;5077809;28;45366;-70
2023/01/16 11:38:43;;;;;;;;;2.75;2.00;;;;;;;;5077708;28;45419;-71
2023/01/16 11:41:09;;;;;;;;;4.00;2.50;;;;;;;;5077677;28;45583;-70
2023/01/16 11:46:28;;;;;;;;;2.50;2.50;;;;;;;;5078609;27;45436;-70
2023/01/16 11:48:57;;;;;;;;;4.00;1.50;;;;;;;;5078211;28;45335;-70
2023/01/16 11:51:28;;;;;;;;;0.75;0.75;;;;;;;;5077559;28;46533;-70
2023/01/16 11:53:54;;;;;;;;;2.25;1.00;;;;;;;;5077600;27;45549;-69
2023/01/16 11:56:22;;;;;;;;;2.00;2.00;;;;;;;;5075722;27;45470;-70
2023/01/16 11:59:17;;;;;;;;;3.00;1.00;;;;;;;;5075928;28;45410;-70
2023/01/16 12:02:19;;;;;;;;;1.00;1.00;;;;;;;;5032724;28;46747;-70
2023/01/16 12:07:55;;;;;;;;;2.25;2.25;;;;;;;;5033607;28;45368;-70
2023/01/16 12:10:52;;;;;;;;;0.00;0.00;;;;;;;;5033980;28;45600;-70
2023/01/16 12:16:18;;;;;;;;;2.50;1.00;;;;;;;;4948233;28;45533;-70
2023/01/16 12:18:43;;;;;;;;;1.50;1.00;;;;;;;;4956177;28;45510;-70
2023/01/16 12:21:19;;;;;;;;;2.00;2.00;;;;;;;;4956783;28;45451;-69
2023/01/16 12:23:52;;;;;;;;;2.25;2.25;;;;;;;;4956276;28;46465;-70
2023/01/16 12:26:25;;;;;;;;;2.00;2.00;;;;;;;;4956609;28;45446;-71
2023/01/16 12:28:50;;;;;;;;;1.00;1.00;;;;;;;;4956493;28;45431;-70
2023/01/16 12:33:57;;;;;;;;;8.00;5.00;;;;;;;;4956243;28;45578;-70
2023/01/16 12:36:28;;;;;;;;;1.00;1.00;;;;;;;;4956339;28;45867;-71
2023/01/16 12:39:01;;;;;;;;;4.00;4.00;;;;;;;;4988155;28;45361;-71
2023/01/16 12:44:38;;;;;;;;;1.00;1.00;;;;;;;;4995072;28;45496;-71
2023/01/16 12:47:15;;;;;;;;;3.00;3.00;;;;;;;;4995347;28;45370;-70
2023/01/16 12:49:52;;;;;;;;;2.50;2.00;;;;;;;;5045398;28;45452;-70
2023/01/16 12:52:35;;;;;;;;;5.50;3.00;;;;;;;;5057255;28;45317;-71
2023/01/16 12:55:06;;;;;;;;;6.00;5.00;;;;;;;;5056909;28;46378;-70
2023/01/16 12:57:39;;;;;;;;;12.50;6.75;;;;;;;;5056776;28;45246;-71
2023/01/16 13:00:10;;;;;;;;;9.50;5.50;;;;;;;;5077086;28;45478;-70
2023/01/16 13:02:45;;;;;;;;;18.00;16.33;;;;;;;;5077465;28;45563;-71
2023/01/16 13:05:17;;;;;;;;;19.00;17.33;;;;;;;;5077135;28;45947;-71
2023/01/16 13:07:49;;;;;;;;;20.33;15.00;;;;;;;;5076969;28;45403;-70
2023/01/16 13:13:25;;;;;;;;;51.00;35.67;;;;;;;;5077576;28;45411;-71
2023/01/16 13:15:54;;;;;;;;;4.75;4.75;;;;;;;;5076960;28;45577;-71
2023/01/16 13:18:19;;;;;;;;;9.25;9.00;;;;;;;;5077090;28;45406;-70
2023/01/16 13:20:50;;;;;;;;;11.50;7.25;;;;;;;;5077112;28;45426;-71
2023/01/16 13:23:39;;;;;;;;;3.25;3.25;;;;;;;;5077576;28;45466;-71
2023/01/16 13:26:15;;;;;;;;;3.00;2.75;;;;;;;;5034414;28;45463;-69
2023/01/16 13:28:46;;;;;;;;;5.00;4.00;;;;;;;;5034307;28;45578;-70
2023/01/16 13:31:17;;;;;;;;;1.75;1.75;;;;;;;;5034010;28;45552;-70
2023/01/16 13:33:44;;;;;;;;;3.50;3.50;;;;;;;;5034745;28;45318;-70
2023/01/16 13:36:28;;;;;;;;;3.75;2.25;;;;;;;;5034104;28;45653;-70
2023/01/16 13:39:08;;;;;;;;;2.00;1.75;;;;;;;;5034242;28;45462;-70
2023/01/16 13:41:37;;;;;;;;;2.00;2.00;;;;;;;;5034281;28;45429;-70
2023/01/16 13:46:47;;;;;;;;;4.25;2.75;;;;;;;;5034128;28;45484;-69
2023/01/16 13:49:16;;;;;;;;;3.25;3.25;;;;;;;;5034101;28;45285;-69
2023/01/16 13:51:43;;;;;;;;;18.67;14.33;;;;;;;;5034165;28;45467;-70
2023/01/16 13:54:13;;;;;;;;;21.00;18.33;;;;;;;;5034321;28;45541;-70
2023/01/16 13:56:40;;;;;;;;;25.00;22.00;;;;;;;;5033784;28;45398;-70
2023/01/16 13:59:08;;;;;;;;;7.50;4.75;;;;;;;;5033935;28;45436;-70
2023/01/16 14:01:33;;;;;;;;;2.50;1.50;;;;;;;;5035282;28;45448;-70
2023/01/16 14:04:10;;;;;;;;;3.25;2.75;;;;;;;;5074564;28;45588;-70
2023/01/16 14:06:49;;;;;;;;;10.25;10.00;;;;;;;;5079809;28;46359;-70
2023/01/16 14:09:17;;;;;;;;;1.00;1.00;;;;;;;;5080165;28;45493;-70
2023/01/16 14:11:52;;;;;;;;;1.00;1.00;;;;;;;;5080245;28;45762;-70
2023/01/16 14:16:30;;;;;;;;;0.50;0.50;;;;;;;;5080127;28;45486;-70
2023/01/16 14:17:07;;;;;;;;;0.75;0.75;;;;;;;;5079556;28;45392;-70
2023/01/16 14:19:36;;;;;;;;;0.00;0.00;;;;;;;;5079859;28;45317;-70
2023/01/16 14:24:28;;;;;;;;;0.25;0.25;;;;;;;;5080037;28;45248;-70
2023/01/16 14:26:58;;;;;;;;;1.75;1.00;;;;;;;;5079716;28;46497;-70
2023/01/16 14:29:28;;;;;;;;;0.00;0.00;;;;;;;;5079656;28;45455;-69
2023/01/16 14:31:53;;;;;;;;;1.25;1.25;;;;;;;;5079369;28;45373;-69
2023/01/16 14:34:25;;;;;;;;;0.75;0.75;;;;;;;;5079974;28;45449;-70
2023/01/16 14:36:52;;;;;;;;;1.75;1.50;;;;;;;;5079560;28;45472;-69
2023/01/16 14:39:29;;;;;;;;;3.75;2.00;;;;;;;;5079389;28;45415;-69
2023/01/16 14:56:49;;;;;;;;;7.25;7.25;;;;;;;;5017143;28;45444;-69
2023/01/16 14:59:32;;;;;;;;;7.25;5.25;;;;;;;;5016475;28;45729;-70
2023/01/16 15:02:20;;;;;;;;;4.50;3.50;;;;;;;;5016468;28;45378;-70
2023/01/16 15:04:51;;;;;;;;;5.00;5.00;;;;;;;;5016681;28;45484;-70
2023/01/16 15:07:20;;;;;;;;;6.50;4.00;;;;;;;;5016879;28;45578;-70
2023/01/16 15:09:46;;;;;;;;;2.25;2.25;;;;;;;;5016400;28;45478;-69
2023/01/16 15:12:12;;;;;;;;;2.00;2.00;;;;;;;;5016008;28;45452;-70
2023/01/16 15:14:37;;;;;;;;;3.75;3.75;;;;;;;;5015954;28;45475;-70
2023/01/16 15:22:43;;;;;;;;;7.50;7.50;;;;;;;;5078779;28;45314;-70
2023/01/16 15:25:24;;;;;;;;;6.00;6.00;;;;;;;;5078732;28;45748;-70
2023/01/16 15:27:53;;;;;;;;;11.00;10.33;;;;;;;;5078989;28;45394;-70
2023/01/16 15:30:18;;;;;;;;;7.75;7.75;;;;;;;;5078520;28;46265;-70
2023/01/16 15:32:54;;;;;;;;;15.33;10.33;;;;;;;;5078404;28;45445;-70
2023/01/16 15:35:22;;;;;;;;;8.50;7.75;;;;;;;;5078655;28;45393;-69
2023/01/16 15:37:52;;;;;;;;;15.00;7.00;;;;;;;;5078990;28;45382;-70
2023/01/16 15:40:25;;;;;;;;;5.50;3.00;;;;;;;;5078197;28;45972;-70
2023/01/16 15:48:38;;;;;;;;;8.50;4.00;;;;;;;;5078417;28;45320;-70
2023/01/16 15:51:04;;;;;;;;;12.25;8.00;;;;;;;;5078150;28;47102;-70
2023/01/16 15:53:42;;;;;;;;;11.25;11.25;;;;;;;;5078323;28;45397;-70
2023/01/16 15:56:30;;;;;;;;;19.75;8.00;;;;;;;;5078314;28;45370;-70
2023/01/16 15:58:55;;;;;;;;;5.00;5.00;;;;;;;;5072741;28;45563;-69
2023/01/16 16:01:38;;;;;;;;;11.50;10.00;;;;;;;;5078140;28;45880;-70
2023/01/16 16:04:04;;;;;;;;;8.33;5.33;;;;;;;;5078122;28;45543;-70
2023/01/16 16:06:30;;;;;;;;;11.00;8.00;;;;;;;;5078295;28;45965;-69
2023/01/16 16:08:58;;;;;;;;;6.75;5.00;;;;;;;;5078242;28;45337;-69
2023/01/16 16:19:47;;;;;;;;;11.25;8.00;;;;;;;;5078268;28;45421;-70
2023/01/16 16:25:16;;;;;;;;;10.33;9.00;;;;;;;;5078655;27;45822;-70
2023/01/16 16:27:42;;;;;;;;;9.75;8.25;;;;;;;;5086669;27;45675;-69
2023/01/16 16:30:15;;;;;;;;;12.00;9.00;;;;;;;;5084480;27;46815;-69
2023/01/16 16:32:40;;;;;;;;;11.00;10.25;;;;;;;;5088104;27;45361;-69